Time;durP1;ratioP1;P1;durP2;ratioP2;P2;SDS_P1;SDS_P2;PMS_P1;PMS_P2;Temp;Humidity;BMP_temperature;BMP_pressure;BME280_temperature;BME280_humidity;BME280_pressure;Samples;Min_cycle;Max_cycle;Signal;HPM_P1;HPM_P2
2022/03/14 00:01:44;;;;;;;14.23;10.17;;;4.10;31.60;;;2.64;38.00;98079.78;5014919;28;20516;-73
2022/03/14 00:04:11;;;;;;;12.40;10.03;;;4.10;31.70;;;2.49;38.22;98084.94;5015281;28;21001;-72
2022/03/14 00:06:38;;;;;;;13.10;9.20;;;3.90;31.50;;;2.46;38.66;98096.75;5015685;28;20902;-72
2022/03/14 00:09:07;;;;;;;11.70;9.57;;;3.90;31.80;;;2.41;38.50;98104.41;5015676;28;20444;-72
2022/03/14 00:11:39;;;;;;;11.60;8.83;;;3.80;31.70;;;2.46;38.32;98107.41;5015880;28;20511;-72
2022/03/14 00:14:08;;;;;;;10.27;9.17;;;3.80;31.60;;;2.31;38.59;98099.22;5014047;28;20954;-73
2022/03/14 00:16:39;;;;;;;15.00;10.53;;;3.70;31.80;;;2.22;38.92;98117.00;5015346;28;20435;-72
2022/03/14 00:19:06;;;;;;;12.33;9.80;;;3.60;31.80;;;2.14;40.39;98116.13;5015498;28;20435;-73
2022/03/14 00:21:39;;;;;;;11.00;9.10;;;3.50;32.20;;;2.19;39.25;98127.16;5015414;28;20496;-72
2022/03/14 00:24:08;;;;;;;17.97;9.40;;;3.50;32.00;;;2.06;39.80;98122.25;5015694;28;20454;-73
2022/03/14 00:26:37;;;;;;;15.20;10.00;;;3.50;32.00;;;2.09;39.84;98132.59;5013954;28;20450;-73
2022/03/14 00:29:04;;;;;;;11.70;9.60;;;3.50;32.60;;;1.78;39.42;98079.78;5015294;28;20478;-73
2022/03/14 00:31:31;;;;;;;13.50;9.47;;;3.50;32.10;;;2.00;39.42;98120.22;5015635;28;20467;-73
2022/03/14 00:33:58;;;;;;;16.20;9.77;;;3.50;32.20;;;2.02;40.24;98131.53;5016276;28;20483;-72
2022/03/14 00:36:27;;;;;;;14.37;10.13;;;3.40;32.30;;;1.91;39.85;98133.50;5014508;28;20436;-73
2022/03/14 00:38:55;;;;;;;14.20;9.07;;;3.30;32.20;;;1.90;40.08;98139.81;5015192;28;20542;-73
2022/03/14 00:41:23;;;;;;;11.37;9.23;;;3.30;32.30;;;1.87;39.46;98132.13;5013671;28;20458;-72
2022/03/14 00:43:52;;;;;;;13.07;9.27;;;3.30;32.50;;;1.77;39.94;98131.41;5014809;28;20440;-72
2022/03/14 00:46:19;;;;;;;13.33;9.37;;;3.30;32.20;;;1.83;39.93;98138.75;5030804;28;20562;-72
2022/03/14 00:48:47;;;;;;;10.87;9.63;;;3.20;32.20;;;1.76;40.42;98145.72;5013446;28;20830;-72
2022/03/14 00:51:17;;;;;;;13.10;9.20;;;3.20;32.30;;;1.60;40.49;98155.28;5014764;28;20527;-72
2022/03/14 00:53:44;;;;;;;11.43;9.17;;;3.00;32.30;;;1.55;41.05;98157.53;5014641;28;20438;-73
2022/03/14 00:56:12;;;;;;;13.10;9.40;;;2.90;32.40;;;1.54;40.61;98151.41;5014648;28;21000;-73
2022/03/14 00:58:39;;;;;;;13.17;9.50;;;2.90;32.60;;;1.39;40.72;98136.97;5013369;28;20530;-73
2022/03/14 01:01:07;;;;;;;12.40;9.83;;;2.80;32.60;;;1.41;40.69;98141.13;5029788;28;20442;-73
2022/03/14 01:03:35;;;;;;;12.87;8.70;;;2.90;32.70;;;1.46;41.17;98147.81;5030357;28;20501;-72
2022/03/14 01:06:02;;;;;;;13.63;9.13;;;2.80;32.70;;;1.42;41.12;98158.75;5015205;28;20458;-72
2022/03/14 01:08:29;;;;;;;13.30;9.90;;;2.80;32.70;;;1.50;41.08;98170.50;5013452;28;20552;-72
2022/03/14 01:10:56;;;;;;;14.77;10.53;;;2.90;32.70;;;1.41;41.06;98156.28;5012882;28;20444;-71
2022/03/14 01:13:23;;;;;;;13.60;9.73;;;2.80;32.70;;;1.25;41.22;98141.84;5013733;28;20491;-72
2022/03/14 01:15:50;;;;;;;11.13;9.30;;;2.80;32.80;;;1.30;41.38;98144.03;5014363;28;20554;-73
2022/03/14 01:18:18;;;;;;;13.10;8.90;;;2.80;32.80;;;1.39;41.10;98153.75;5013041;28;20517;-72
2022/03/14 01:20:45;;;;;;;16.23;9.40;;;2.80;32.80;;;1.26;41.68;98158.63;5014061;28;20537;-72
2022/03/14 01:23:12;;;;;;;11.37;9.97;;;2.70;32.80;;;0.98;41.71;98097.47;5014510;28;20447;-72
2022/03/14 01:25:40;;;;;;;13.27;9.70;;;2.70;32.90;;;1.06;42.08;98126.84;5014569;28;20449;-73
2022/03/14 01:28:07;;;;;;;12.60;9.33;;;2.70;33.30;;;1.23;41.48;98164.25;5013155;28;20443;-73
2022/03/14 01:30:35;;;;;;;11.50;8.97;;;2.60;32.90;;;1.01;42.40;98171.72;5014122;28;20476;-73
2022/03/14 01:33:03;;;;;;;12.20;8.80;;;2.50;32.90;;;0.94;42.39;98166.16;5014209;28;20428;-73
2022/03/14 01:35:32;;;;;;;12.17;9.43;;;2.40;33.30;;;1.00;42.49;98170.03;5013347;28;20927;-73
2022/03/14 01:38:00;;;;;;;14.00;9.67;;;2.30;33.10;;;0.97;42.71;98171.16;5029862;28;20446;-73
2022/03/14 01:40:28;;;;;;;13.93;10.00;;;2.30;33.30;;;0.96;42.53;98169.50;5014129;28;20431;-74
2022/03/14 01:42:55;;;;;;;11.87;9.27;;;2.40;33.30;;;0.94;43.11;98178.59;5012968;28;20443;-74
2022/03/14 01:45:23;;;;;;;13.83;10.13;;;2.40;33.40;;;1.00;42.80;98164.72;5012205;28;20479;-73
2022/03/14 01:47:50;;;;;;;11.77;9.40;;;2.40;33.70;;;0.98;42.83;98171.97;5012890;28;20447;-74
2022/03/14 01:50:19;;;;;;;12.87;9.47;;;2.50;33.40;;;1.01;42.38;98185.00;5012398;28;20438;-73
2022/03/14 01:52:48;;;;;;;11.03;9.67;;;2.50;33.30;;;1.00;42.80;98196.66;5013562;28;20446;-73
2022/03/14 01:55:16;;;;;;;14.00;9.87;;;2.40;33.30;;;0.45;42.96;98147.81;5014306;28;20471;-73
2022/03/14 01:57:44;;;;;;;13.47;9.53;;;2.30;33.30;;;0.76;43.50;98187.38;5013747;28;20815;-73
2022/03/14 02:00:15;;;;;;;12.10;9.60;;;2.20;33.40;;;0.73;43.10;98211.63;5029196;28;20443;-73
2022/03/14 02:02:42;;;;;;;13.93;10.50;;;2.20;33.50;;;0.60;43.79;98211.13;5012039;28;20463;-74
2022/03/14 02:05:11;;;;;;;15.57;9.83;;;2.00;33.60;;;0.54;43.83;98223.19;5012458;28;20498;-73
2022/03/14 02:07:38;;;;;;;11.77;9.60;;;1.90;33.70;;;0.63;43.68;98226.78;5012432;28;20800;-74
2022/03/14 02:10:09;;;;;;;15.73;10.73;;;1.90;33.70;;;0.56;43.42;98227.38;5013855;28;20443;-73
2022/03/14 02:12:43;;;;;;;11.50;9.93;;;2.00;33.70;;;0.63;44.01;98227.66;5013674;28;20446;-73
2022/03/14 02:15:11;;;;;;;12.57;9.30;;;2.00;33.90;;;0.32;43.54;98181.84;5013154;28;20800;-73
2022/03/14 02:17:39;;;;;;;10.97;8.87;;;2.10;33.90;;;0.66;43.58;98245.97;5012618;28;20447;-73
2022/03/14 02:20:09;;;;;;;13.63;10.27;;;2.10;33.70;;;0.59;43.38;98241.38;5013811;28;20450;-73
2022/03/14 02:22:36;;;;;;;11.30;9.03;;;2.10;33.60;;;0.51;43.99;98248.25;5013578;28;20450;-74
2022/03/14 02:25:09;;;;;;;13.80;10.40;;;2.00;33.70;;;0.46;43.77;98239.88;5015077;28;20859;-74
2022/03/14 02:27:37;;;;;;;14.43;9.97;;;1.90;33.70;;;0.45;45.08;98251.50;5033437;28;20455;-73
2022/03/14 02:30:06;;;;;;;12.10;8.80;;;1.90;34.00;;;0.52;43.85;98257.88;5017263;28;20438;-74
2022/03/14 02:32:33;;;;;;;12.37;9.10;;;1.90;33.70;;;0.44;44.18;98263.13;5016100;28;20436;-73
2022/03/14 02:35:00;;;;;;;13.17;9.77;;;1.90;34.10;;;0.39;44.07;98262.72;5015937;28;20553;-74
2022/03/14 02:37:28;;;;;;;12.30;10.27;;;1.90;33.80;;;0.42;44.21;98273.06;5015567;28;20443;-74
2022/03/14 02:39:55;;;;;;;12.33;9.17;;;1.80;33.90;;;0.37;44.11;98285.91;5017741;28;20500;-74
2022/03/14 02:42:22;;;;;;;15.37;10.03;;;1.80;33.90;;;-0.14;44.95;98198.50;5031560;28;20450;-73
2022/03/14 02:44:49;;;;;;;11.17;9.33;;;1.80;34.20;;;0.28;44.74;98280.50;5016520;28;20525;-74
2022/03/14 02:47:16;;;;;;;10.93;9.70;;;1.80;34.10;;;0.20;44.83;98291.00;5016754;28;20445;-73
2022/03/14 02:49:44;;;;;;;12.60;9.07;;;1.70;34.10;;;0.18;45.05;98284.97;5015641;28;20520;-73
2022/03/14 02:52:11;;;;;;;12.50;9.67;;;1.60;34.10;;;-0.01;45.65;98288.50;5032101;28;20526;-73
2022/03/14 02:54:40;;;;;;;11.57;9.37;;;1.50;34.30;;;0.18;45.06;98302.78;5016807;28;20474;-73
2022/03/14 02:57:08;;;;;;;10.83;9.27;;;1.50;34.40;;;0.07;45.72;98312.56;5016559;28;20444;-74
2022/03/14 02:59:35;;;;;;;13.13;9.50;;;1.50;34.40;;;0.08;45.10;98321.38;5016763;28;20509;-72
2022/03/14 03:02:03;;;;;;;13.77;8.87;;;1.50;34.40;;;0.01;45.73;98328.22;5016728;28;20522;-72
2022/03/14 03:04:30;;;;;;;12.20;10.00;;;1.40;34.50;;;0.11;45.00;98334.38;5015106;28;20454;-72
2022/03/14 03:06:57;;;;;;;14.13;10.13;;;1.40;34.50;;;0.23;45.27;98343.88;5016341;28;20930;-72
2022/03/14 03:09:26;;;;;;;16.47;10.40;;;1.50;34.50;;;0.18;44.98;98351.44;5015453;28;20493;-72
2022/03/14 03:11:55;;;;;;;17.70;11.03;;;1.60;34.50;;;0.10;45.28;98340.69;5015868;28;20446;-74
2022/03/14 03:14:23;;;;;;;15.07;10.50;;;1.60;34.40;;;0.20;45.11;98351.28;5016951;28;20423;-73
2022/03/14 03:16:50;;;;;;;15.17;10.20;;;1.60;34.40;;;0.16;44.81;98377.31;5014828;28;20449;-72
2022/03/14 03:19:17;;;;;;;13.07;9.43;;;1.60;34.30;;;0.01;45.96;98376.03;5014770;28;20450;-73
2022/03/14 03:21:44;;;;;;;12.43;10.13;;;1.50;34.40;;;-0.02;45.91;98372.69;5031555;28;20541;-73
2022/03/14 03:24:12;;;;;;;15.80;10.33;;;1.40;34.70;;;0.05;46.21;98391.56;5031528;28;20500;-72
2022/03/14 03:26:39;;;;;;;14.37;9.73;;;1.50;34.90;;;0.05;45.85;98390.72;5016641;28;20443;-73
2022/03/14 03:29:09;;;;;;;12.90;9.30;;;1.40;34.80;;;-0.02;45.72;98404.56;5016020;28;20451;-73
2022/03/14 03:31:36;;;;;;;13.27;9.60;;;1.50;34.80;;;-0.04;46.39;98403.88;5015527;28;20457;-72
2022/03/14 03:34:04;;;;;;;13.67;9.90;;;1.40;34.90;;;0.18;46.01;98404.56;5016741;28;20475;-72
2022/03/14 03:36:31;;;;;;;16.97;10.00;;;1.50;34.90;;;0.26;45.66;98396.75;5015826;28;20466;-73
2022/03/14 03:38:58;;;;;;;14.10;11.10;;;1.60;34.80;;;0.04;45.65;98381.06;5032767;28;20451;-73
2022/03/14 03:41:25;;;;;;;17.50;10.20;;;1.70;34.80;;;0.35;45.70;98411.03;5015226;28;20549;-73
2022/03/14 03:43:52;;;;;;;11.47;9.90;;;1.80;34.80;;;0.33;45.64;98414.78;5016140;28;20941;-73
2022/03/14 03:46:21;;;;;;;14.00;10.07;;;1.80;34.70;;;0.47;45.34;98424.19;5015913;28;20459;-73
2022/03/14 03:48:48;;;;;;;14.90;9.33;;;1.90;34.70;;;0.48;45.39;98437.31;5014671;28;20473;-73
2022/03/14 03:51:15;;;;;;;11.20;9.50;;;1.90;34.70;;;0.39;45.26;98431.03;5014546;28;20538;-72
2022/03/14 03:53:42;;;;;;;14.80;10.47;;;1.90;34.60;;;0.54;44.95;98442.09;5014385;28;20470;-72
2022/03/14 03:56:09;;;;;;;17.73;10.60;;;2.00;34.60;;;0.47;45.01;98451.59;5015867;28;20845;-74
2022/03/14 03:58:36;;;;;;;12.90;10.10;;;1.90;34.60;;;0.61;45.40;98458.31;5030743;28;20509;-74
2022/03/14 04:01:03;;;;;;;14.53;9.90;;;2.00;34.80;;;0.73;44.77;98456.34;5014873;28;20514;-74
2022/03/14 04:03:32;;;;;;;14.23;10.60;;;2.10;34.70;;;0.77;44.88;98462.22;5014073;28;20851;-73
2022/03/14 04:05:59;;;;;;;14.00;9.63;;;2.20;34.60;;;0.67;44.55;98456.91;5015546;28;20474;-73
2022/03/14 04:08:30;;;;;;;13.23;9.57;;;2.20;34.50;;;0.83;44.49;98475.81;5015990;28;20493;-73
2022/03/14 04:10:58;;;;;;;13.20;10.63;;;2.30;34.60;;;0.90;44.15;98483.22;5014331;28;20430;-74
2022/03/14 04:13:26;;;;;;;19.47;10.60;;;2.30;34.60;;;0.80;44.30;98468.09;5015488;28;20449;-73
2022/03/14 04:15:54;;;;;;;13.83;10.63;;;2.30;34.70;;;0.96;44.99;98478.16;5015671;28;20463;-72
2022/03/14 04:18:24;;;;;;;13.50;9.33;;;2.40;34.80;;;1.00;44.43;98494.69;5014199;28;20792;-72
2022/03/14 04:20:54;;;;;;;14.73;10.13;;;2.40;34.70;;;1.03;44.82;98496.22;5015162;28;20525;-72
2022/03/14 04:23:21;;;;;;;12.73;10.20;;;2.40;34.80;;;0.80;44.22;98448.63;5015723;28;20478;-73
2022/03/14 04:25:48;;;;;;;15.53;10.83;;;2.50;34.80;;;1.09;44.57;98496.47;5030650;28;20435;-73
2022/03/14 04:28:16;;;;;;;13.30;10.13;;;2.50;34.80;;;1.05;44.75;98499.56;5013945;28;20549;-73
2022/03/14 04:30:43;;;;;;;12.80;10.10;;;2.50;34.90;;;1.20;44.55;98510.63;5013967;28;20456;-73
2022/03/14 04:33:11;;;;;;;14.30;10.57;;;2.60;34.80;;;1.19;44.86;98509.75;5014018;28;20550;-73
2022/03/14 04:35:38;;;;;;;13.30;10.27;;;2.50;34.90;;;1.18;44.91;98518.72;4997039;28;20487;-73
2022/03/14 04:38:08;;;;;;;12.93;9.97;;;2.60;35.00;;;1.22;45.25;98521.97;5015252;28;20506;-73
2022/03/14 04:40:35;;;;;;;14.70;10.50;;;2.60;35.20;;;1.17;44.97;98516.22;5013436;28;20432;-73
2022/03/14 04:43:05;;;;;;;13.60;10.33;;;2.60;35.20;;;1.32;45.48;98520.13;5014867;28;20530;-73
2022/03/14 04:45:32;;;;;;;14.63;10.43;;;2.70;35.40;;;1.30;46.07;98510.59;5013578;28;20434;-73
2022/03/14 04:48:00;;;;;;;12.70;10.63;;;2.70;35.70;;;1.14;46.75;98522.66;5013966;28;20454;-72
2022/03/14 04:50:27;;;;;;;13.10;10.23;;;2.60;35.90;;;1.13;46.89;98523.66;5014478;28;20453;-73
2022/03/14 04:52:54;;;;;;;12.90;10.17;;;2.60;36.60;;;1.16;47.48;98498.59;5029554;28;20471;-73
2022/03/14 04:55:23;;;;;;;12.77;10.20;;;2.70;36.50;;;1.26;47.41;98523.34;5012942;28;20466;-73
2022/03/14 04:57:50;;;;;;;11.77;10.00;;;2.70;36.60;;;1.27;47.94;98523.22;5014100;28;20439;-73
2022/03/14 05:00:17;;;;;;;15.27;10.93;;;2.70;36.90;;;1.17;48.22;98511.72;5013200;28;20895;-73
2022/03/14 05:02:45;;;;;;;15.23;11.07;;;2.70;37.10;;;1.24;48.22;98525.31;5014303;28;20922;-73
2022/03/14 05:05:12;;;;;;;14.10;10.63;;;2.70;37.10;;;1.33;48.33;98537.78;5014889;28;20486;-73
2022/03/14 05:07:39;;;;;;;14.67;11.77;;;2.80;37.20;;;1.10;48.43;98484.84;5013468;28;20440;-73
2022/03/14 05:10:07;;;;;;;15.33;10.90;;;2.80;37.20;;;1.38;48.50;98540.84;5029628;28;20592;-73
2022/03/14 05:12:36;;;;;;;13.60;11.10;;;2.80;37.40;;;1.44;48.46;98535.91;5012735;28;21041;-73
2022/03/14 05:15:03;;;;;;;18.57;12.60;;;2.80;37.50;;;1.37;48.62;98544.50;5014062;28;20466;-74
2022/03/14 05:17:30;;;;;;;14.80;11.30;;;2.80;37.50;;;1.41;48.14;98531.72;5014221;28;20440;-73
2022/03/14 05:19:57;;;;;;;16.80;10.70;;;2.80;37.20;;;1.36;47.54;98510.84;5013850;28;20471;-73
2022/03/14 05:22:24;;;;;;;15.97;12.03;;;2.90;37.10;;;1.43;46.99;98532.44;5014323;28;20962;-71
2022/03/14 05:24:51;;;;;;;15.87;12.07;;;2.90;36.90;;;1.50;46.88;98527.38;5029365;28;20471;-74
2022/03/14 05:27:18;;;;;;;15.57;11.00;;;3.00;36.60;;;1.47;46.27;98517.81;5014102;28;20424;-74
2022/03/14 05:29:47;;;;;;;15.43;11.47;;;3.00;36.50;;;1.53;46.60;98530.59;5014049;28;20438;-75
2022/03/14 05:32:15;;;;;;;15.50;11.30;;;3.00;36.30;;;1.78;45.96;98551.38;5029640;28;20442;-74
2022/03/14 05:34:42;;;;;;;16.00;10.60;;;3.10;36.30;;;1.65;47.32;98563.19;5033632;28;20494;-74
2022/03/14 05:37:09;;;;;;;16.20;11.30;;;3.10;36.80;;;1.58;46.96;98578.06;5032206;28;20469;-73
2022/03/14 05:39:36;;;;;;;16.60;11.30;;;3.10;36.70;;;1.61;47.51;98588.47;5032210;28;20446;-75
2022/03/14 05:42:04;;;;;;;14.03;9.80;;;3.10;37.00;;;1.55;48.37;98611.19;5032619;28;20470;-82
2022/03/14 05:44:31;;;;;;;18.10;10.40;;;3.00;37.30;;;1.33;48.99;98620.31;5034516;28;20928;-77
2022/03/14 05:46:59;;;;;;;16.30;10.87;;;2.90;37.60;;;1.31;49.90;98632.94;5032884;28;20542;-75
2022/03/14 05:49:26;;;;;;;17.70;11.03;;;2.80;37.90;;;1.17;50.03;98636.84;5048943;28;20797;-79
2022/03/14 05:51:53;;;;;;;15.90;10.87;;;2.70;38.10;;;1.46;49.78;98649.31;5032409;28;21001;-80
2022/03/14 05:54:21;;;;;;;20.37;11.57;;;2.80;38.60;;;1.50;49.74;98658.69;5032786;28;20521;-79
2022/03/14 05:56:48;;;;;;;18.13;11.13;;;2.90;39.10;;;1.61;49.25;98667.53;5049769;28;20531;-79
2022/03/14 05:59:15;;;;;;;17.90;10.90;;;3.00;38.60;;;1.20;50.60;98622.44;5032077;28;20916;-81
2022/03/14 06:01:42;;;;;;;21.80;10.70;;;2.90;38.80;;;1.63;49.63;98676.22;5031800;28;20948;-80
2022/03/14 06:04:10;;;;;;;17.13;11.60;;;3.00;38.70;;;1.75;50.06;98674.25;5033555;28;20458;-75
2022/03/14 06:06:38;;;;;;;17.30;12.43;;;3.10;39.30;;;1.51;50.17;98662.22;5035138;28;20945;-73
2022/03/14 06:09:05;;;;;;;17.73;12.10;;;3.10;38.80;;;1.90;49.88;98674.63;5033687;28;20454;-74
2022/03/14 06:11:31;;;;;;;18.53;11.50;;;3.20;39.10;;;1.89;50.15;98654.28;5033077;28;20484;-73
2022/03/14 06:13:58;;;;;;;16.53;12.10;;;3.30;39.30;;;2.01;49.84;98685.13;5032488;28;20504;-74
2022/03/14 06:16:26;;;;;;;17.20;12.93;;;3.40;39.30;;;2.08;50.11;98675.56;5032119;28;20881;-75
2022/03/14 06:18:53;;;;;;;18.87;12.87;;;3.50;39.60;;;2.25;50.17;98697.13;5033439;28;20442;-74
2022/03/14 06:21:21;;;;;;;18.43;13.53;;;3.60;39.60;;;2.33;50.06;98701.72;5049724;28;20473;-76
2022/03/14 06:23:48;;;;;;;22.07;12.17;;;3.70;39.60;;;2.32;49.94;98708.03;5033705;28;20485;-75
2022/03/14 06:26:15;;;;;;;20.03;12.23;;;3.80;39.50;;;2.69;50.91;98709.88;5033315;28;20429;-75
2022/03/14 06:28:42;;;;;;;19.73;12.60;;;3.90;40.40;;;2.50;49.95;98717.00;5033467;28;20935;-72
2022/03/14 06:31:11;;;;;;;18.90;13.13;;;3.90;39.60;;;2.53;49.97;98722.03;5033293;28;20442;-70
2022/03/14 06:33:39;;;;;;;22.93;13.53;;;3.90;39.60;;;2.59;50.35;98728.59;5033314;28;20446;-72
2022/03/14 06:36:06;;;;;;;18.07;13.70;;;3.90;39.80;;;2.57;49.87;98725.22;5032526;28;20474;-72
2022/03/14 06:38:35;;;;;;;17.67;14.57;;;4.00;40.00;;;2.67;51.08;98727.88;5033385;28;20526;-70
2022/03/14 06:41:02;;;;;;;17.27;13.10;;;4.00;40.50;;;2.64;50.99;98739.66;5033595;28;20447;-71
2022/03/14 06:43:32;;;;;;;19.77;13.03;;;4.00;40.40;;;2.83;51.32;98733.41;5033381;28;20438;-72
2022/03/14 06:45:59;;;;;;;20.47;13.20;;;4.10;40.80;;;3.09;52.20;98751.38;5031727;28;20947;-72
2022/03/14 06:48:25;;;;;;;15.30;12.50;;;4.30;41.70;;;2.57;53.26;98689.72;5033826;28;20465;-71
2022/03/14 06:50:52;;;;;;;17.13;12.43;;;4.30;42.00;;;2.72;54.59;98740.75;5033167;28;20432;-71
2022/03/14 06:53:19;;;;;;;23.53;13.37;;;4.20;42.70;;;2.75;55.55;98759.16;5032659;28;20485;-72
2022/03/14 06:55:48;;;;;;;19.97;13.70;;;4.20;43.50;;;2.53;55.91;98775.38;5032431;28;20575;-71
2022/03/14 06:58:17;;;;;;;18.73;13.40;;;4.00;43.70;;;2.67;56.21;98773.22;5032721;28;20757;-80
2022/03/14 07:00:45;;;;;;;25.30;12.70;;;4.00;44.10;;;2.46;57.40;98766.25;5031484;28;20878;-70
2022/03/14 07:03:12;;;;;;;19.40;12.40;;;4.00;44.90;;;2.39;58.34;98773.16;5033211;28;20441;-72
2022/03/14 07:05:38;;;;;;;20.00;13.30;;;3.90;45.70;;;2.36;60.28;98779.63;5033684;28;20484;-71
2022/03/14 07:08:05;;;;;;;16.83;13.73;;;3.80;46.80;;;2.61;60.26;98789.81;5032694;28;20791;-72
2022/03/14 07:10:34;;;;;;;15.00;11.73;;;3.90;47.50;;;2.54;61.73;98793.06;5012906;28;20451;-71
2022/03/14 07:13:03;;;;;;;18.97;13.70;;;4.00;48.60;;;2.35;63.95;98795.75;5031909;28;20439;-70
2022/03/14 07:15:30;;;;;;;22.97;14.17;;;3.90;49.60;;;2.37;63.18;98804.50;5013952;28;20773;-71
2022/03/14 07:17:57;;;;;;;18.20;13.23;;;3.80;49.80;;;2.39;62.97;98813.19;5016350;28;20479;-71
2022/03/14 07:20:25;;;;;;;19.00;13.30;;;3.80;50.00;;;2.26;64.23;98822.31;5015964;28;20811;-76
2022/03/14 07:22:56;;;;;;;21.00;13.90;;;3.70;50.60;;;2.35;64.70;98819.75;5016513;28;20440;-75
2022/03/14 07:25:26;;;;;;;18.83;13.33;;;3.80;51.90;;;2.28;64.90;98834.66;5016925;28;20526;-74
2022/03/14 07:27:55;;;;;;;19.27;12.97;;;3.70;52.10;;;2.33;64.93;98838.59;5016647;28;20446;-74
2022/03/14 07:30:24;;;;;;;22.80;14.90;;;3.80;52.60;;;2.29;66.08;98844.34;5015669;28;20926;-74
2022/03/14 07:32:51;;;;;;;17.23;13.53;;;3.70;53.30;;;2.31;66.29;98839.72;5016373;28;20202;-77
2022/03/14 07:35:18;;;;;;;16.00;13.63;;;3.70;54.20;;;2.40;66.60;98845.03;5014445;28;20479;-77
2022/03/14 07:37:45;;;;;;;21.33;14.40;;;3.80;55.10;;;2.57;67.27;98839.13;5015764;28;20499;-77
2022/03/14 07:40:14;;;;;;;24.13;15.93;;;3.90;56.00;;;2.66;68.38;98833.75;5014866;28;20471;-77
2022/03/14 07:42:43;;;;;;;16.73;13.10;;;4.10;57.40;;;2.75;67.11;98836.56;5015099;28;20918;-76
2022/03/14 07:45:11;;;;;;;20.63;14.47;;;4.10;57.50;;;2.61;67.23;98835.16;5015770;28;20447;-75
2022/03/14 07:47:40;;;;;;;18.47;13.30;;;4.00;57.50;;;2.73;67.97;98839.34;5016198;28;20443;-75
2022/03/14 07:50:10;;;;;;;18.33;14.03;;;4.10;58.50;;;2.87;68.36;98843.38;5015123;28;20439;-75
2022/03/14 07:52:38;;;;;;;21.67;14.83;;;4.30;59.20;;;2.91;67.75;98842.13;5016078;28;20447;-74
2022/03/14 07:55:07;;;;;;;18.93;15.07;;;4.30;59.20;;;3.08;68.83;98827.13;5014639;28;20463;-75
2022/03/14 07:57:35;;;;;;;23.50;13.70;;;4.40;60.10;;;3.28;68.38;98828.88;5015736;28;20463;-76
2022/03/14 08:00:04;;;;;;;18.83;15.23;;;4.60;60.30;;;3.45;67.26;98835.25;5014246;28;20440;-76
2022/03/14 08:02:31;;;;;;;16.60;14.50;;;4.80;60.00;;;3.48;68.35;98848.31;5015306;28;20439;-75
2022/03/14 08:05:00;;;;;;;19.70;15.07;;;4.90;60.40;;;3.29;69.60;98854.59;5014180;28;20534;-76
2022/03/14 08:07:27;;;;;;;19.43;13.67;;;4.80;61.10;;;3.50;68.86;98857.88;5014662;28;20435;-76
2022/03/14 08:09:54;;;;;;;18.97;14.20;;;4.90;61.70;;;3.37;69.53;98865.41;5015954;28;20496;-76
2022/03/14 08:12:22;;;;;;;16.00;14.30;;;4.80;62.90;;;3.37;70.58;98879.56;5014363;28;20443;-77
2022/03/14 08:14:50;;;;;;;20.20;14.60;;;4.80;63.90;;;3.56;70.45;98876.97;5016599;28;20443;-78
2022/03/14 08:17:17;;;;;;;22.63;14.80;;;4.80;65.40;;;3.54;70.93;98845.03;5014461;28;20467;-76
2022/03/14 08:19:45;;;;;;;17.50;13.40;;;5.00;66.50;;;4.00;70.24;98884.28;5016172;28;20443;-78
2022/03/14 08:22:13;;;;;;;17.83;14.40;;;5.20;67.00;;;3.49;72.36;98888.25;5014366;28;20432;-78
2022/03/14 08:24:40;;;;;;;16.67;14.87;;;5.00;67.80;;;3.60;72.91;98889.88;5030649;28;20531;-78
2022/03/14 08:27:08;;;;;;;20.70;14.47;;;4.90;69.70;;;3.74;72.24;98879.69;5015545;28;20474;-77
2022/03/14 08:29:35;;;;;;;17.80;15.00;;;5.00;70.50;;;3.82;73.96;98879.75;5011481;28;20449;-77
2022/03/14 08:32:02;;;;;;;19.55;15.50;;;5.10;72.10;;;4.35;72.37;98880.75;5010239;28;20447;-75
2022/03/14 08:34:29;;;;;;;20.30;14.77;;;5.50;71.80;;;4.87;71.29;98887.19;5014794;28;20627;-76
2022/03/14 08:36:56;;;;;;;20.20;14.60;;;6.00;70.90;;;5.16;70.43;98887.84;5014956;28;20466;-77
2022/03/14 08:39:25;;;;;;;18.50;14.33;;;6.30;70.80;;;5.17;70.76;98892.19;5014979;28;20530;-77
2022/03/14 08:41:52;;;;;;;19.87;14.50;;;6.50;70.40;;;5.51;70.62;98896.72;5015412;28;20451;-78
2022/03/14 08:44:19;;;;;;;16.63;13.73;;;6.60;71.10;;;5.39;71.73;98902.38;5014889;28;20432;-76
2022/03/14 08:46:46;;;;;;;16.30;13.80;;;6.70;71.70;;;5.65;72.15;98903.31;5014890;28;20531;-77
2022/03/14 08:49:13;;;;;;;17.05;14.45;;;6.80;72.90;;;5.44;72.38;98866.22;5013588;28;20470;-78
2022/03/14 08:51:40;;;;;;;19.63;15.67;;;6.90;73.10;;;5.77;73.64;98903.84;5015099;28;20263;-80
2022/03/14 08:54:07;;;;;;;20.27;14.90;;;7.00;74.20;;;6.48;70.78;98901.69;5014701;28;20447;-75
2022/03/14 08:56:37;;;;;;;19.07;14.80;;;7.50;73.40;;;6.50;71.17;98912.22;5014647;28;20471;-75
2022/03/14 08:59:05;;;;;;;21.20;14.70;;;7.70;72.80;;;6.56;72.08;98926.84;5014736;28;20471;-76
2022/03/14 09:01:32;;;;;;;20.60;15.00;;;7.70;73.30;;;6.37;72.55;98920.78;5014586;28;20751;-75
2022/03/14 09:04:01;;;;;;;15.40;13.63;;;7.70;73.90;;;6.67;72.44;98918.44;5014204;28;20235;-78
2022/03/14 09:06:28;;;;;;;16.17;14.03;;;7.90;74.50;;;6.92;71.67;98923.81;5014069;28;20493;-77
2022/03/14 09:08:56;;;;;;;15.10;13.30;;;8.00;74.40;;;7.12;71.54;98926.13;5014823;28;20443;-81
2022/03/14 09:11:24;;;;;;;16.97;13.53;;;8.30;74.10;;;7.47;70.62;98934.78;5015510;28;20415;-77
2022/03/14 09:13:52;;;;;;;16.47;14.00;;;8.60;73.30;;;7.53;70.32;98931.41;5013236;28;20460;-77
2022/03/14 09:16:20;;;;;;;18.60;14.50;;;8.70;72.80;;;7.40;71.09;98936.50;5012855;28;20930;-78
2022/03/14 09:18:47;;;;;;;15.53;13.70;;;8.60;73.20;;;7.26;71.28;98914.69;5019174;28;20471;-72
2022/03/14 09:21:14;;;;;;;19.00;12.97;;;8.60;73.80;;;7.74;70.33;98944.28;5014562;28;20447;-76
2022/03/14 09:23:42;;;;;;;10.00;8.90;;;8.90;73.50;;;7.82;71.74;98939.88;5014119;28;20437;-77
2022/03/14 09:26:09;;;;;;;13.10;9.60;;;9.00;74.50;;;8.03;72.26;98945.47;5014800;28;20908;-77
2022/03/14 09:28:39;;;;;;;9.00;8.13;;;9.10;75.70;;;8.34;71.52;98951.88;5014736;28;20438;-77
2022/03/14 09:31:08;;;;;;;11.90;7.17;;;9.40;75.90;;;8.59;71.66;98955.25;5014304;28;20500;-77
2022/03/14 09:33:35;;;;;;;9.50;6.47;;;9.60;76.10;;;8.88;71.02;98956.38;5014033;28;20513;-75
2022/03/14 09:36:02;;;;;;;8.90;6.40;;;9.90;75.50;;;8.87;70.55;98949.31;5031684;28;20432;-77
2022/03/14 09:38:30;;;;;;;8.37;6.27;;;9.90;75.10;;;8.72;71.09;98956.53;5019660;28;20473;-77
2022/03/14 09:41:02;;;;;;;9.77;7.10;;;9.90;75.30;;;8.41;72.28;98944.75;5014882;28;20427;-77
2022/03/14 09:43:31;;;;;;;5.73;4.90;;;9.70;75.80;;;8.63;71.43;98958.44;5014232;28;20450;-77
2022/03/14 09:46:00;;;;;;;6.33;4.43;;;9.70;76.00;;;8.58;70.52;98966.25;5012900;28;20506;-77
2022/03/14 09:48:36;;;;;;;8.43;5.37;;;9.80;74.80;;;8.76;70.21;98969.47;5014277;28;20433;-77
2022/03/14 09:51:05;;;;;;;5.53;4.40;;;9.90;74.80;;;8.84;70.67;98973.94;5013847;28;20441;-77
2022/03/14 09:53:34;;;;;;;6.77;4.30;;;10.00;73.70;;;9.39;69.39;98968.38;5014146;28;20450;-78
2022/03/14 09:56:02;;;;;;;4.27;3.80;;;10.40;73.20;;;9.04;68.58;98933.84;5013862;28;20919;-77
2022/03/14 09:58:29;;;;;;;5.53;3.57;;;10.60;72.10;;;9.47;66.12;98953.97;5014554;28;20467;-77
2022/03/14 10:01:02;;;;;;;5.77;2.60;;;10.70;70.70;;;9.48;65.99;98983.47;5012407;28;20468;-76
2022/03/14 10:03:31;;;;;;;6.10;3.03;;;10.70;69.30;;;9.54;64.84;98971.09;5012277;28;20486;-77
2022/03/14 10:05:58;;;;;;;7.40;2.60;;;10.80;68.90;;;9.40;64.48;98985.41;5014621;28;20444;-77
2022/03/14 10:08:25;;;;;;;4.80;2.90;;;10.70;67.30;;;9.21;64.74;98988.44;5013598;28;20450;-77
2022/03/14 10:10:52;;;;;;;5.20;2.83;;;10.50;67.50;;;9.16;64.67;99000.78;5015521;28;20436;-77
2022/03/14 10:13:18;;;;;;;4.50;2.60;;;10.30;67.50;;;9.48;63.75;98988.03;5029048;28;20877;-78
2022/03/14 10:15:48;;;;;;;6.77;2.50;;;10.50;67.30;;;9.32;63.89;98986.31;5014074;28;20845;-78
2022/03/14 10:18:17;;;;;;;6.33;2.83;;;10.50;66.90;;;9.17;63.18;98987.13;5013505;28;20494;-77
2022/03/14 10:20:57;;;;;;;4.67;2.30;;;10.40;66.20;;;9.18;63.74;99004.16;5013465;28;20758;-74
2022/03/14 10:23:39;;;;;;;9.50;2.60;;;10.30;66.20;;;9.04;62.63;99003.94;5012456;28;20439;-77
2022/03/14 10:26:06;;;;;;;8.57;2.60;;;10.30;65.20;;;9.22;62.83;99018.94;5013697;28;20437;-77